Startpagina
METAR-TAF:

METAR-TAF

Vliegvelden :

Rome-Fiumicino, Italië

Aeroporto di Roma Fiumicino

breedte: 41-48N, lengte: 012-14E, hoogte: 2 m

Actueel weer

Dit bericht is 41 minuten geleden gemaakt, om 11:20 UTC
Wind 3 kt uit variabele richting
Temperatuur 14°C
Vochtigheid 58%
Druk 1014 hPa
Zicht 10 km of meer
geen wolken onder 1500 m en geen cumulonimbus

METAR: LIRF 191120Z VRB03KT CAVOK 14/06 Q1014 NOSIG

Tijdstip: 13:01 (12:01 UTC)

Verwachting

Dit bericht is 1 uur en het 1 minuten geleden gemaakt, om 11:00 UTC
Verwachting geldig van 19 om 12 UTC tot 20 om 18 UTC
Wind 10 kt uit het noordwesten
Zicht 10 km of meer
geen wolken onder 1500 m en geen cumulonimbus
Wijzigt naar
van 19 om 21 UTC tot 19 om 23 UTC
Wind 12 kt uit het noordnoordoosten
Wijzigt naar
van 20 om 09 UTC tot 20 om 11 UTC
Wind 10 kt uit het zuiden

TAF: LIRF 191100Z 1912/2018 32010KT CAVOK BECMG 1921/1923 02012KT BECMG 2009/2011 17010KT

Waarnemingen en weersverwachtingen van meer dan 4000 vliegvelden (METAR en TAF).

De beschikbare stations zijn de gele en rode punten op de kaart.

Ga met uw muis naar het station om de naam te zien.

Klik dan om waarnemingen en weersverwachtingen te zien.

kaart wijzigen: klik op de groene knoppen met een zwart kruis om in te zoomen, op de groene knop met een streepje om uit te zoomen of op de groene pijlen voor aangrenzende kaarten.


METAR-TAF: